Main page
METAR-TAF:

METAR-TAF

Airports :

Millington-Memphis Airport

Millington, Tennessee, United States

latitude: 35-21-24N, longitude: 089-52-13W, elevation: 321 ft

Current weather observation

The report was made 26 minutes ago, at 21:50 UTC
Wind 3 mph from the South/Southeast
Temperature 66°F
Humidity 43%
Pressure 30.01 in. Hg
Visibility: 10 miles
Clear sky

METAR: KNQA 012150Z 16003KT 10SM CLR 19/06 A3001

Time: 17:16 (22:16 UTC)


TAF: missing

Weather observations and forecasts of more than 4000 airports (METAR and TAF reports).

The available stations are represented by yellow and red dots on the map.

Hover mouse over dot to see the name of the station.

Then click to see weather observations and forecasts.

To change the map : click on the green buttons with a black cross to zoom in, on the green button with a dash to zoom out, or on the green arrows for adjacent maps.


METAR-TAF: